Impacts TAF Board INFO
FOR SITUATIONAL AWARENESS. NOT TO BE USED FOR FLIGHT PLANNING PURPOSES.
IDs:

KTOI - Troy Muni, AL, US

Issued at 1126 UTC 21 May 2018
Updated at 1313 UTC 21 May 2018
Potential Impact None Slight Moderate High
Time1253Z 21/14Z 21/15Z 21/16Z 21/17Z 21/18Z 21/19Z 21/20Z 21/21Z 21/22Z 21/23Z 22/00Z 22/01Z 22/02Z>>
Type OBS PRVL
  [TEMP]  
PRVL
  [TEMP]  
PRVL PRVL PRVL PRVL PRVL PRVL PRVL PRVL PRVL PRVL PRVL
VIS 10 >6
  [6]  
>6
  [6]  
>6 >6 >6 >6 >6 >6 >6 >6 >6 >6 >6
CIG 47 50
  [25]  
50
  [25]  
50 50 50 50 50 50 50 50 50 50 50
Cover OVC BKN
  [OVC]  
BKN
  [OVC]  
BKN BKN BKN OVC OVC OVC OVC OVC OVC OVC OVC
FltCat VFR VFR
  [MVFR]  
VFR
  [MVFR]  
VFR VFR VFR VFR VFR VFR VFR VFR VFR VFR VFR
WX -- VCSH
  [-RA]  
VCSH
  [-RA]  
VCSH VCTS VCTS TSRA TSRA TSRA TSRA TSRA SHRA VCTS SHRA VCTS SHRA VCTS
WDir 60 100
[100]
100
[100]
100 100 100 100 100 100 100 100 110 110 110
WSpd 7 9
  [9]  
9
  [9]  
9 9 9 9 9 9 9 9 7 7 7
WGst -- --
  [--]  
--
  [--]  
-- -- -- -- -- -- -- -- -- -- --

Raw TAF
KTOI 211126Z 2112/2212 10009KT P6SM VCSH SCT025 BKN050
  TEMPO 2112/2116 6SM -RA SCT015 BKN025 OVC035
  FM211700 10009KT P6SM VCTS SCT020CB BKN050
  FM211900 10009KT P6SM TSRA SCT025CB OVC050
  FM220000 11007KT P6SM SHRA VCTS BKN050CB OVC100
  FM220600 13004KT 4SM BR OVC007


Raw METAR
KTOI 211253Z AUTO 06007KT 10SM SCT037 BKN047 OVC065 21/18 A3010 RMK AO2 SLP188 T02110183
KTOI 211211Z AUTO 04006KT 10SM FEW016 BKN030 OVC042 20/18 A3010 RMK AO2 T02000178
KTOI 211153Z AUTO 02004KT 10SM OVC028 20/18 A3010 RMK AO2 SLP188 60000 T02000178 10200 20189 53005
KTOI 211128Z AUTO 04005KT 10SM BKN026 BKN031 OVC040 20/18 A3009 RMK AO2 T02000178
KTOI 211101Z AUTO 04004KT 10SM FEW021 BKN041 OVC100 20/18 A3008 RMK AO2 T02000178
KTOI 211053Z AUTO 05004KT 10SM SCT019 BKN028 OVC037 19/18 A3009 RMK AO2 SLP184 T01940178

METAR Board
Radar Display
Forecast Discussion

FOR SITUATIONAL AWARENESS. NOT TO BE USED FOR FLIGHT PLANNING PURPOSES.